sensor_id;sensor_type;location;lat;lon;timestamp;pressure;altitude;pressure_sealevel;temperature
67822;BMP180;54434;50.096;20.082;2023-04-01T00:00:04;97142.00;;;9.80
67822;BMP180;54434;50.096;20.082;2023-04-01T00:03:04;97142.00;;;9.80
67822;BMP180;54434;50.096;20.082;2023-04-01T00:05:40;97138.60;;;9.72
67822;BMP180;54434;50.096;20.082;2023-04-01T00:08:17;97137.60;;;9.70
67822;BMP180;54434;50.096;20.082;2023-04-01T00:10:54;97135.60;;;9.70
67822;BMP180;54434;50.096;20.082;2023-04-01T00:13:32;97135.80;;;9.62
67822;BMP180;54434;50.096;20.082;2023-04-01T00:16:09;97140.20;;;9.60
67822;BMP180;54434;50.096;20.082;2023-04-01T00:18:55;97137.40;;;9.60
67822;BMP180;54434;50.096;20.082;2023-04-01T00:21:32;97128.80;;;9.50
67822;BMP180;54434;50.096;20.082;2023-04-01T00:24:09;97121.60;;;9.50
67822;BMP180;54434;50.096;20.082;2023-04-01T00:26:45;97127.00;;;9.42
67822;BMP180;54434;50.096;20.082;2023-04-01T00:29:22;97121.00;;;9.40
67822;BMP180;54434;50.096;20.082;2023-04-01T00:32:04;97119.20;;;9.40
67822;BMP180;54434;50.096;20.082;2023-04-01T00:34:41;97118.00;;;9.30
67822;BMP180;54434;50.096;20.082;2023-04-01T00:37:17;97114.40;;;9.30
67822;BMP180;54434;50.096;20.082;2023-04-01T00:39:54;97117.00;;;9.22
67822;BMP180;54434;50.096;20.082;2023-04-01T00:42:30;97114.40;;;9.20
67822;BMP180;54434;50.096;20.082;2023-04-01T00:45:33;97107.20;;;9.20
67822;BMP180;54434;50.096;20.082;2023-04-01T00:48:16;97108.60;;;9.16
67822;BMP180;54434;50.096;20.082;2023-04-01T00:50:59;97105.20;;;9.10
67822;BMP180;54434;50.096;20.082;2023-04-01T00:53:42;97097.80;;;9.10
67822;BMP180;54434;50.096;20.082;2023-04-01T00:56:24;97100.80;;;9.00
67822;BMP180;54434;50.096;20.082;2023-04-01T00:59:06;97104.20;;;9.00
67822;BMP180;54434;50.096;20.082;2023-04-01T01:01:45;97106.80;;;8.90
67822;BMP180;54434;50.096;20.082;2023-04-01T01:04:31;97108.60;;;8.90
67822;BMP180;54434;50.096;20.082;2023-04-01T01:07:22;97100.00;;;8.80
67822;BMP180;54434;50.096;20.082;2023-04-01T01:10:13;97101.60;;;8.78
67822;BMP180;54434;50.096;20.082;2023-04-01T01:13:02;97102.20;;;8.70
67822;BMP180;54434;50.096;20.082;2023-04-01T01:15:47;97101.40;;;8.70
67822;BMP180;54434;50.096;20.082;2023-04-01T01:18:38;97105.40;;;8.60
67822;BMP180;54434;50.096;20.082;2023-04-01T01:21:50;97106.80;;;8.60
67822;BMP180;54434;50.096;20.082;2023-04-01T01:24:52;97108.60;;;8.60
67822;BMP180;54434;50.096;20.082;2023-04-01T01:27:32;97114.40;;;8.50
67822;BMP180;54434;50.096;20.082;2023-04-01T01:30:44;97117.80;;;8.50
67822;BMP180;54434;50.096;20.082;2023-04-01T01:33:50;97115.80;;;8.50
67822;BMP180;54434;50.096;20.082;2023-04-01T01:36:34;97108.80;;;8.44
67822;BMP180;54434;50.096;20.082;2023-04-01T01:39:16;97105.40;;;8.46
67822;BMP180;54434;50.096;20.082;2023-04-01T01:41:54;97110.60;;;8.50
67822;BMP180;54434;50.096;20.082;2023-04-01T01:44:34;97114.80;;;8.50
67822;BMP180;54434;50.096;20.082;2023-04-01T01:47:12;97119.40;;;8.50
67822;BMP180;54434;50.096;20.082;2023-04-01T01:49:52;97120.60;;;8.50
67822;BMP180;54434;50.096;20.082;2023-04-01T01:52:30;97123.60;;;8.46
67822;BMP180;54434;50.096;20.082;2023-04-01T01:55:32;97121.20;;;8.40
67822;BMP180;54434;50.096;20.082;2023-04-01T01:58:17;97124.40;;;8.40
67822;BMP180;54434;50.096;20.082;2023-04-01T02:01:01;97126.20;;;8.40
67822;BMP180;54434;50.096;20.082;2023-04-01T02:03:41;97119.60;;;8.40
67822;BMP180;54434;50.096;20.082;2023-04-01T02:06:23;97121.60;;;8.40
67822;BMP180;54434;50.096;20.082;2023-04-01T02:09:04;97116.80;;;8.32
67822;BMP180;54434;50.096;20.082;2023-04-01T02:11:48;97120.80;;;8.30
67822;BMP180;54434;50.096;20.082;2023-04-01T02:14:28;97120.40;;;8.30
67822;BMP180;54434;50.096;20.082;2023-04-01T02:17:10;97122.20;;;8.30
67822;BMP180;54434;50.096;20.082;2023-04-01T02:19:53;97121.20;;;8.20
67822;BMP180;54434;50.096;20.082;2023-04-01T02:22:36;97121.40;;;8.20
67822;BMP180;54434;50.096;20.082;2023-04-01T02:25:15;97128.40;;;8.20
67822;BMP180;54434;50.096;20.082;2023-04-01T02:27:54;97127.60;;;8.20
67822;BMP180;54434;50.096;20.082;2023-04-01T02:30:36;97127.80;;;8.20
67822;BMP180;54434;50.096;20.082;2023-04-01T02:33:13;97131.80;;;8.20
67822;BMP180;54434;50.096;20.082;2023-04-01T02:35:50;97132.80;;;8.20
67822;BMP180;54434;50.096;20.082;2023-04-01T02:38:27;97128.80;;;8.20
67822;BMP180;54434;50.096;20.082;2023-04-01T02:41:05;97133.60;;;8.20
67822;BMP180;54434;50.096;20.082;2023-04-01T02:43:42;97136.40;;;8.20
67822;BMP180;54434;50.096;20.082;2023-04-01T02:46:18;97140.80;;;8.20
67822;BMP180;54434;50.096;20.082;2023-04-01T02:48:55;97148.60;;;8.20
67822;BMP180;54434;50.096;20.082;2023-04-01T02:51:32;97149.80;;;8.20
67822;BMP180;54434;50.096;20.082;2023-04-01T02:54:09;97147.60;;;8.30
67822;BMP180;54434;50.096;20.082;2023-04-01T02:56:45;97148.40;;;8.30
67822;BMP180;54434;50.096;20.082;2023-04-01T02:59:22;97149.20;;;8.30
67822;BMP180;54434;50.096;20.082;2023-04-01T03:01:58;97153.20;;;8.30
67822;BMP180;54434;50.096;20.082;2023-04-01T03:04:35;97156.40;;;8.34
67822;BMP180;54434;50.096;20.082;2023-04-01T03:07:12;97158.20;;;8.40
67822;BMP180;54434;50.096;20.082;2023-04-01T03:09:48;97156.00;;;8.40
67822;BMP180;54434;50.096;20.082;2023-04-01T03:12:26;97154.80;;;8.50
67822;BMP180;54434;50.096;20.082;2023-04-01T03:15:02;97156.00;;;8.50
67822;BMP180;54434;50.096;20.082;2023-04-01T03:17:46;97156.00;;;8.50
67822;BMP180;54434;50.096;20.082;2023-04-01T03:20:23;97152.40;;;8.50
67822;BMP180;54434;50.096;20.082;2023-04-01T03:22:59;97155.00;;;8.50
67822;BMP180;54434;50.096;20.082;2023-04-01T03:25:37;97152.60;;;8.50
67822;BMP180;54434;50.096;20.082;2023-04-01T03:28:13;97152.40;;;8.50
67822;BMP180;54434;50.096;20.082;2023-04-01T03:30:50;97147.60;;;8.48
67822;BMP180;54434;50.096;20.082;2023-04-01T03:33:26;97147.20;;;8.40
67822;BMP180;54434;50.096;20.082;2023-04-01T03:36:05;97146.00;;;8.40
67822;BMP180;54434;50.096;20.082;2023-04-01T03:38:43;97146.40;;;8.30
67822;BMP180;54434;50.096;20.082;2023-04-01T03:41:21;97155.00;;;8.30
67822;BMP180;54434;50.096;20.082;2023-04-01T03:43:57;97157.80;;;8.20
67822;BMP180;54434;50.096;20.082;2023-04-01T03:46:34;97156.20;;;8.20
67822;BMP180;54434;50.096;20.082;2023-04-01T03:49:12;97157.40;;;8.20
67822;BMP180;54434;50.096;20.082;2023-04-01T03:51:49;97161.80;;;8.18
67822;BMP180;54434;50.096;20.082;2023-04-01T03:54:25;97163.20;;;8.12
67822;BMP180;54434;50.096;20.082;2023-04-01T03:57:02;97164.40;;;8.16
67822;BMP180;54434;50.096;20.082;2023-04-01T03:59:39;97170.20;;;8.18
67822;BMP180;54434;50.096;20.082;2023-04-01T04:02:16;97166.00;;;8.18
67822;BMP180;54434;50.096;20.082;2023-04-01T04:04:53;97165.40;;;8.16
67822;BMP180;54434;50.096;20.082;2023-04-01T04:07:30;97167.00;;;8.18
67822;BMP180;54434;50.096;20.082;2023-04-01T04:10:11;97165.00;;;8.16
67822;BMP180;54434;50.096;20.082;2023-04-01T04:12:48;97165.20;;;8.14
67822;BMP180;54434;50.096;20.082;2023-04-01T04:15:25;97166.40;;;8.10
67822;BMP180;54434;50.096;20.082;2023-04-01T04:18:02;97166.60;;;8.10
67822;BMP180;54434;50.096;20.082;2023-04-01T04:20:45;97164.80;;;8.10
67822;BMP180;54434;50.096;20.082;2023-04-01T04:23:23;97168.60;;;8.10
67822;BMP180;54434;50.096;20.082;2023-04-01T04:26:04;97172.40;;;8.10
67822;BMP180;54434;50.096;20.082;2023-04-01T04:28:41;97176.00;;;8.20
67822;BMP180;54434;50.096;20.082;2023-04-01T04:31:23;97174.00;;;8.20
67822;BMP180;54434;50.096;20.082;2023-04-01T04:34:03;97172.40;;;8.20
67822;BMP180;54434;50.096;20.082;2023-04-01T04:36:41;97169.40;;;8.30
67822;BMP180;54434;50.096;20.082;2023-04-01T04:39:18;97167.60;;;8.30
67822;BMP180;54434;50.096;20.082;2023-04-01T04:41:55;97168.80;;;8.30
67822;BMP180;54434;50.096;20.082;2023-04-01T04:44:31;97164.80;;;8.38
67822;BMP180;54434;50.096;20.082;2023-04-01T04:47:08;97163.20;;;8.40
67822;BMP180;54434;50.096;20.082;2023-04-01T04:49:45;97162.80;;;8.40
67822;BMP180;54434;50.096;20.082;2023-04-01T04:52:22;97165.40;;;8.50
67822;BMP180;54434;50.096;20.082;2023-04-01T04:54:58;97164.80;;;8.50
67822;BMP180;54434;50.096;20.082;2023-04-01T04:57:35;97167.00;;;8.60
67822;BMP180;54434;50.096;20.082;2023-04-01T05:00:14;97165.20;;;8.62
67822;BMP180;54434;50.096;20.082;2023-04-01T05:03:03;97166.00;;;8.70
67822;BMP180;54434;50.096;20.082;2023-04-01T05:05:47;97172.20;;;8.78
67822;BMP180;54434;50.096;20.082;2023-04-01T05:08:24;97173.80;;;8.80
67822;BMP180;54434;50.096;20.082;2023-04-01T05:11:01;97175.60;;;8.90
67822;BMP180;54434;50.096;20.082;2023-04-01T05:13:39;97177.40;;;9.00
67822;BMP180;54434;50.096;20.082;2023-04-01T05:16:18;97174.80;;;9.04
67822;BMP180;54434;50.096;20.082;2023-04-01T05:18:55;97173.20;;;9.10
67822;BMP180;54434;50.096;20.082;2023-04-01T05:21:31;97173.20;;;9.14
67822;BMP180;54434;50.096;20.082;2023-04-01T05:24:12;97174.00;;;9.20
67822;BMP180;54434;50.096;20.082;2023-04-01T05:26:49;97175.80;;;9.24
67822;BMP180;54434;50.096;20.082;2023-04-01T05:29:28;97176.40;;;9.30
67822;BMP180;54434;50.096;20.082;2023-04-01T05:32:11;97175.60;;;9.40
67822;BMP180;54434;50.096;20.082;2023-04-01T05:34:48;97174.00;;;9.50
67822;BMP180;54434;50.096;20.082;2023-04-01T05:37:26;97174.20;;;9.64
67822;BMP180;54434;50.096;20.082;2023-04-01T05:40:05;97170.80;;;9.70
67822;BMP180;54434;50.096;20.082;2023-04-01T05:42:42;97177.00;;;9.80
67822;BMP180;54434;50.096;20.082;2023-04-01T05:45:19;97169.00;;;9.80
67822;BMP180;54434;50.096;20.082;2023-04-01T05:48:14;97171.60;;;9.90
67822;BMP180;54434;50.096;20.082;2023-04-01T05:50:51;97175.00;;;10.00
67822;BMP180;54434;50.096;20.082;2023-04-01T05:53:28;97174.40;;;10.20
67822;BMP180;54434;50.096;20.082;2023-04-01T05:56:08;97177.40;;;10.50
67822;BMP180;54434;50.096;20.082;2023-04-01T05:58:53;97184.40;;;10.70
67822;BMP180;54434;50.096;20.082;2023-04-01T06:01:33;97182.20;;;10.80
67822;BMP180;54434;50.096;20.082;2023-04-01T06:06:49;97185.40;;;10.90
67822;BMP180;54434;50.096;20.082;2023-04-01T06:09:31;97187.60;;;10.90
67822;BMP180;54434;50.096;20.082;2023-04-01T06:12:32;97187.40;;;10.90
67822;BMP180;54434;50.096;20.082;2023-04-01T06:15:28;97188.80;;;10.90
67822;BMP180;54434;50.096;20.082;2023-04-01T06:18:48;97190.00;;;10.80
67822;BMP180;54434;50.096;20.082;2023-04-01T06:21:53;97190.80;;;10.90
67822;BMP180;54434;50.096;20.082;2023-04-01T06:24:55;97191.20;;;10.90
67822;BMP180;54434;50.096;20.082;2023-04-01T06:27:57;97190.80;;;11.00
67822;BMP180;54434;50.096;20.082;2023-04-01T06:30:44;97189.00;;;11.10
67822;BMP180;54434;50.096;20.082;2023-04-01T06:33:50;97192.80;;;11.10
67822;BMP180;54434;50.096;20.082;2023-04-01T06:37:04;97196.20;;;11.10
67822;BMP180;54434;50.096;20.082;2023-04-01T06:40:25;97197.40;;;11.20
67822;BMP180;54434;50.096;20.082;2023-04-01T06:43:19;97197.60;;;11.30
67822;BMP180;54434;50.096;20.082;2023-04-01T06:46:28;97197.20;;;11.30
67822;BMP180;54434;50.096;20.082;2023-04-01T06:49:52;97200.40;;;11.30
67822;BMP180;54434;50.096;20.082;2023-04-01T06:53:09;97202.00;;;11.40
67822;BMP180;54434;50.096;20.082;2023-04-01T06:56:16;97202.40;;;11.62
67822;BMP180;54434;50.096;20.082;2023-04-01T06:59:12;97205.40;;;11.90
67822;BMP180;54434;50.096;20.082;2023-04-01T07:01:55;97206.80;;;12.10
67822;BMP180;54434;50.096;20.082;2023-04-01T07:04:38;97204.60;;;12.20
67822;BMP180;54434;50.096;20.082;2023-04-01T07:07:29;97208.00;;;12.20
67822;BMP180;54434;50.096;20.082;2023-04-01T07:10:20;97201.80;;;12.10
67822;BMP180;54434;50.096;20.082;2023-04-01T07:13:57;97199.40;;;12.00
67822;BMP180;54434;50.096;20.082;2023-04-01T07:16:41;97203.60;;;12.00
67822;BMP180;54434;50.096;20.082;2023-04-01T07:19:27;97201.00;;;12.10
67822;BMP180;54434;50.096;20.082;2023-04-01T07:22:24;97201.00;;;12.26
67822;BMP180;54434;50.096;20.082;2023-04-01T07:25:47;97205.20;;;12.58
67822;BMP180;54434;50.096;20.082;2023-04-01T07:28:41;97209.20;;;12.74
67822;BMP180;54434;50.096;20.082;2023-04-01T07:31:59;97201.80;;;12.80
67822;BMP180;54434;50.096;20.082;2023-04-01T07:34:54;97204.00;;;12.90
67822;BMP180;54434;50.096;20.082;2023-04-01T07:37:42;97206.80;;;13.00
67822;BMP180;54434;50.096;20.082;2023-04-01T07:40:32;97206.80;;;13.20
67822;BMP180;54434;50.096;20.082;2023-04-01T07:44:05;97207.40;;;13.20
67822;BMP180;54434;50.096;20.082;2023-04-01T07:47:10;97207.80;;;13.20
67822;BMP180;54434;50.096;20.082;2023-04-01T07:50:05;97207.00;;;13.30
67822;BMP180;54434;50.096;20.082;2023-04-01T07:53:02;97205.60;;;13.30
67822;BMP180;54434;50.096;20.082;2023-04-01T07:55:53;97203.00;;;13.30
67822;BMP180;54434;50.096;20.082;2023-04-01T07:58:44;97208.20;;;13.30
67822;BMP180;54434;50.096;20.082;2023-04-01T08:01:41;97213.60;;;13.30
67822;BMP180;54434;50.096;20.082;2023-04-01T08:04:50;97216.40;;;13.30
67822;BMP180;54434;50.096;20.082;2023-04-01T08:07:39;97217.20;;;13.20
67822;BMP180;54434;50.096;20.082;2023-04-01T08:10:43;97222.20;;;13.10
67822;BMP180;54434;50.096;20.082;2023-04-01T08:13:49;97217.60;;;13.00
67822;BMP180;54434;50.096;20.082;2023-04-01T08:17:01;97216.20;;;12.94
67822;BMP180;54434;50.096;20.082;2023-04-01T08:20:04;97218.20;;;13.00
67822;BMP180;54434;50.096;20.082;2023-04-01T08:22:49;97219.20;;;13.00
67822;BMP180;54434;50.096;20.082;2023-04-01T08:25:34;97220.20;;;13.12
67822;BMP180;54434;50.096;20.082;2023-04-01T08:28:25;97220.00;;;13.22
67822;BMP180;54434;50.096;20.082;2023-04-01T08:31:10;97224.20;;;13.40
67822;BMP180;54434;50.096;20.082;2023-04-01T08:33:55;97219.20;;;13.60
67822;BMP180;54434;50.096;20.082;2023-04-01T08:36:37;97217.80;;;13.74
67822;BMP180;54434;50.096;20.082;2023-04-01T08:39:31;97221.00;;;13.90
67822;BMP180;54434;50.096;20.082;2023-04-01T08:42:52;97217.60;;;14.10
67822;BMP180;54434;50.096;20.082;2023-04-01T08:46:15;97221.60;;;14.20
67822;BMP180;54434;50.096;20.082;2023-04-01T08:49:20;97218.40;;;14.40
67822;BMP180;54434;50.096;20.082;2023-04-01T08:52:34;97216.20;;;14.60
67822;BMP180;54434;50.096;20.082;2023-04-01T08:55:56;97217.00;;;14.80
67822;BMP180;54434;50.096;20.082;2023-04-01T08:59:01;97220.40;;;14.92
67822;BMP180;54434;50.096;20.082;2023-04-01T09:02:36;97217.80;;;15.02
67822;BMP180;54434;50.096;20.082;2023-04-01T09:09:55;97215.80;;;15.50
67822;BMP180;54434;50.096;20.082;2023-04-01T09:12:59;97211.20;;;15.70
67822;BMP180;54434;50.096;20.082;2023-04-01T09:16:24;97214.80;;;15.70
67822;BMP180;54434;50.096;20.082;2023-04-01T09:19:18;97209.00;;;15.60
67822;BMP180;54434;50.096;20.082;2023-04-01T09:22:25;97214.80;;;15.40
67822;BMP180;54434;50.096;20.082;2023-04-01T09:25:46;97206.40;;;15.20
67822;BMP180;54434;50.096;20.082;2023-04-01T09:28:41;97210.40;;;14.90
67822;BMP180;54434;50.096;20.082;2023-04-01T09:31:40;97205.80;;;14.80
67822;BMP180;54434;50.096;20.082;2023-04-01T09:34:56;97208.00;;;14.70
67822;BMP180;54434;50.096;20.082;2023-04-01T09:37:54;97206.80;;;14.50
67822;BMP180;54434;50.096;20.082;2023-04-01T09:40:51;97211.80;;;14.20
67822;BMP180;54434;50.096;20.082;2023-04-01T09:44:03;97213.00;;;14.00
67822;BMP180;54434;50.096;20.082;2023-04-01T09:47:14;97213.40;;;14.00
67822;BMP180;54434;50.096;20.082;2023-04-01T09:50:20;97218.20;;;14.00
67822;BMP180;54434;50.096;20.082;2023-04-01T09:53:27;97215.40;;;14.10
67822;BMP180;54434;50.096;20.082;2023-04-01T09:56:58;97222.80;;;14.20
67822;BMP180;54434;50.096;20.082;2023-04-01T10:00:14;97224.20;;;14.10
67822;BMP180;54434;50.096;20.082;2023-04-01T10:07:36;97226.00;;;13.80
67822;BMP180;54434;50.096;20.082;2023-04-01T10:11:05;97225.20;;;13.70
67822;BMP180;54434;50.096;20.082;2023-04-01T10:21:04;97240.20;;;13.68
67822;BMP180;54434;50.096;20.082;2023-04-01T10:24:17;97241.60;;;13.50
67822;BMP180;54434;50.096;20.082;2023-04-01T10:31:21;97245.40;;;13.20
67822;BMP180;54434;50.096;20.082;2023-04-01T10:38:37;97252.80;;;13.50
67822;BMP180;54434;50.096;20.082;2023-04-01T10:41:58;97253.20;;;13.60
67822;BMP180;54434;50.096;20.082;2023-04-01T10:52:56;97258.20;;;13.90
67822;BMP180;54434;50.096;20.082;2023-04-01T10:56:46;97251.40;;;14.00
67822;BMP180;54434;50.096;20.082;2023-04-01T11:00:23;97251.00;;;14.20
67822;BMP180;54434;50.096;20.082;2023-04-01T11:09:18;97249.40;;;15.10
67822;BMP180;54434;50.096;20.082;2023-04-01T11:13:07;97249.80;;;15.30
67822;BMP180;54434;50.096;20.082;2023-04-01T11:20:18;97250.00;;;15.30
67822;BMP180;54434;50.096;20.082;2023-04-01T11:24:05;97247.80;;;15.20
67822;BMP180;54434;50.096;20.082;2023-04-01T11:27:11;97249.60;;;14.90
67822;BMP180;54434;50.096;20.082;2023-04-01T11:30:25;97251.40;;;14.60
67822;BMP180;54434;50.096;20.082;2023-04-01T11:33:14;97247.20;;;14.32
67822;BMP180;54434;50.096;20.082;2023-04-01T11:36:16;97251.60;;;14.12
67822;BMP180;54434;50.096;20.082;2023-04-01T11:39:22;97253.60;;;14.10
67822;BMP180;54434;50.096;20.082;2023-04-01T11:42:33;97250.00;;;14.10
67822;BMP180;54434;50.096;20.082;2023-04-01T11:45:42;97250.80;;;14.20
67822;BMP180;54434;50.096;20.082;2023-04-01T11:48:51;97249.80;;;14.20
67822;BMP180;54434;50.096;20.082;2023-04-01T11:51:59;97246.40;;;14.30
67822;BMP180;54434;50.096;20.082;2023-04-01T11:55:13;97252.80;;;14.30
67822;BMP180;54434;50.096;20.082;2023-04-01T11:58:34;97256.80;;;14.18
67822;BMP180;54434;50.096;20.082;2023-04-01T12:01:43;97257.00;;;14.10
67822;BMP180;54434;50.096;20.082;2023-04-01T12:04:56;97257.80;;;14.10
67822;BMP180;54434;50.096;20.082;2023-04-01T12:08:04;97260.20;;;14.30
67822;BMP180;54434;50.096;20.082;2023-04-01T12:10:56;97260.20;;;14.54
67822;BMP180;54434;50.096;20.082;2023-04-01T12:13:50;97254.00;;;14.68
67822;BMP180;54434;50.096;20.082;2023-04-01T12:16:51;97248.40;;;14.80
67822;BMP180;54434;50.096;20.082;2023-04-01T12:19:48;97252.60;;;14.82
67822;BMP180;54434;50.096;20.082;2023-04-01T12:22:53;97249.60;;;14.80
67822;BMP180;54434;50.096;20.082;2023-04-01T12:26:12;97254.80;;;14.92
67822;BMP180;54434;50.096;20.082;2023-04-01T12:29:12;97259.00;;;14.98
67822;BMP180;54434;50.096;20.082;2023-04-01T12:32:04;97255.00;;;14.80
67822;BMP180;54434;50.096;20.082;2023-04-01T12:35:25;97252.60;;;14.66
67822;BMP180;54434;50.096;20.082;2023-04-01T12:38:26;97254.00;;;14.40
67822;BMP180;54434;50.096;20.082;2023-04-01T12:41:23;97263.60;;;14.20
67822;BMP180;54434;50.096;20.082;2023-04-01T12:44:57;97263.80;;;14.00
67822;BMP180;54434;50.096;20.082;2023-04-01T12:48:25;97268.40;;;13.70
67822;BMP180;54434;50.096;20.082;2023-04-01T12:51:42;97271.40;;;13.80
67822;BMP180;54434;50.096;20.082;2023-04-01T12:55:09;97273.20;;;13.80
67822;BMP180;54434;50.096;20.082;2023-04-01T12:59:03;97271.00;;;13.80
67822;BMP180;54434;50.096;20.082;2023-04-01T13:02:12;97274.80;;;13.80
67822;BMP180;54434;50.096;20.082;2023-04-01T13:05:50;97275.60;;;13.80
67822;BMP180;54434;50.096;20.082;2023-04-01T13:08:45;97275.60;;;13.74
67822;BMP180;54434;50.096;20.082;2023-04-01T13:11:38;97274.00;;;13.70
67822;BMP180;54434;50.096;20.082;2023-04-01T13:14:54;97275.00;;;13.70
67822;BMP180;54434;50.096;20.082;2023-04-01T13:17:50;97278.20;;;13.60
67822;BMP180;54434;50.096;20.082;2023-04-01T13:20:46;97277.20;;;13.62
67822;BMP180;54434;50.096;20.082;2023-04-01T13:23:50;97277.00;;;13.86
67822;BMP180;54434;50.096;20.082;2023-04-01T13:26:36;97282.20;;;13.90
67822;BMP180;54434;50.096;20.082;2023-04-01T13:29:20;97276.60;;;13.80
67822;BMP180;54434;50.096;20.082;2023-04-01T13:32:18;97279.00;;;13.60
67822;BMP180;54434;50.096;20.082;2023-04-01T13:35:37;97280.60;;;13.52
67822;BMP180;54434;50.096;20.082;2023-04-01T13:39:09;97284.00;;;13.46
67822;BMP180;54434;50.096;20.082;2023-04-01T13:42:21;97287.40;;;13.30
67822;BMP180;54434;50.096;20.082;2023-04-01T13:45:12;97295.00;;;13.20
67822;BMP180;54434;50.096;20.082;2023-04-01T13:51:49;97300.20;;;13.10
67822;BMP180;54434;50.096;20.082;2023-04-01T13:55:08;97304.80;;;13.00
67822;BMP180;54434;50.096;20.082;2023-04-01T13:58:26;97302.60;;;13.00
67822;BMP180;54434;50.096;20.082;2023-04-01T14:01:22;97298.80;;;13.00
67822;BMP180;54434;50.096;20.082;2023-04-01T14:04:52;97299.80;;;13.00
67822;BMP180;54434;50.096;20.082;2023-04-01T14:07:55;97296.80;;;13.06
67822;BMP180;54434;50.096;20.082;2023-04-01T14:10:42;97295.20;;;13.10
67822;BMP180;54434;50.096;20.082;2023-04-01T14:13:31;97294.20;;;13.10
67822;BMP180;54434;50.096;20.082;2023-04-01T14:16:57;97292.40;;;13.20
67822;BMP180;54434;50.096;20.082;2023-04-01T14:20:02;97295.40;;;13.10
67822;BMP180;54434;50.096;20.082;2023-04-01T14:23:23;97297.00;;;13.10
67822;BMP180;54434;50.096;20.082;2023-04-01T14:26:27;97290.80;;;13.10
67822;BMP180;54434;50.096;20.082;2023-04-01T14:29:26;97289.60;;;13.20
67822;BMP180;54434;50.096;20.082;2023-04-01T14:32:18;97287.40;;;13.30
67822;BMP180;54434;50.096;20.082;2023-04-01T14:35:27;97293.80;;;13.40
67822;BMP180;54434;50.096;20.082;2023-04-01T14:38:41;97302.40;;;13.40
67822;BMP180;54434;50.096;20.082;2023-04-01T14:41:40;97301.20;;;13.40
67822;BMP180;54434;50.096;20.082;2023-04-01T14:44:52;97304.20;;;13.30
67822;BMP180;54434;50.096;20.082;2023-04-01T14:47:54;97307.00;;;13.20
67822;BMP180;54434;50.096;20.082;2023-04-01T14:50:45;97303.80;;;13.10
67822;BMP180;54434;50.096;20.082;2023-04-01T14:53:35;97303.00;;;13.00
67822;BMP180;54434;50.096;20.082;2023-04-01T14:56:13;97305.00;;;12.90
67822;BMP180;54434;50.096;20.082;2023-04-01T14:59:27;97306.00;;;12.90
67822;BMP180;54434;50.096;20.082;2023-04-01T15:02:32;97312.80;;;12.80
67822;BMP180;54434;50.096;20.082;2023-04-01T15:05:29;97314.20;;;12.80
67822;BMP180;54434;50.096;20.082;2023-04-01T15:08:21;97310.20;;;12.80
67822;BMP180;54434;50.096;20.082;2023-04-01T15:11:32;97309.20;;;12.70
67822;BMP180;54434;50.096;20.082;2023-04-01T15:17:53;97304.60;;;12.70
67822;BMP180;54434;50.096;20.082;2023-04-01T15:21:20;97311.60;;;12.60
67822;BMP180;54434;50.096;20.082;2023-04-01T15:24:16;97313.80;;;12.50
67822;BMP180;54434;50.096;20.082;2023-04-01T15:27:36;97312.40;;;12.48
67822;BMP180;54434;50.096;20.082;2023-04-01T15:30:44;97321.20;;;12.30
67822;BMP180;54434;50.096;20.082;2023-04-01T15:33:51;97326.20;;;12.20
67822;BMP180;54434;50.096;20.082;2023-04-01T15:36:44;97337.80;;;12.10
67822;BMP180;54434;50.096;20.082;2023-04-01T15:39:45;97344.60;;;12.00
67822;BMP180;54434;50.096;20.082;2023-04-01T15:42:58;97349.80;;;11.90
67822;BMP180;54434;50.096;20.082;2023-04-01T15:46:08;97353.00;;;11.80
67822;BMP180;54434;50.096;20.082;2023-04-01T15:49:03;97360.00;;;11.70
67822;BMP180;54434;50.096;20.082;2023-04-01T15:52:02;97360.00;;;11.60
67822;BMP180;54434;50.096;20.082;2023-04-01T15:55:22;97368.00;;;11.60
67822;BMP180;54434;50.096;20.082;2023-04-01T15:58:38;97374.00;;;11.56
67822;BMP180;54434;50.096;20.082;2023-04-01T16:01:40;97377.40;;;11.50
67822;BMP180;54434;50.096;20.082;2023-04-01T16:04:50;97382.40;;;11.40
67822;BMP180;54434;50.096;20.082;2023-04-01T16:07:48;97381.60;;;11.36
67822;BMP180;54434;50.096;20.082;2023-04-01T16:10:47;97385.60;;;11.22
67822;BMP180;54434;50.096;20.082;2023-04-01T16:13:54;97382.40;;;11.18
67822;BMP180;54434;50.096;20.082;2023-04-01T16:16:52;97383.80;;;11.10
67822;BMP180;54434;50.096;20.082;2023-04-01T16:19:47;97388.00;;;11.10
67822;BMP180;54434;50.096;20.082;2023-04-01T16:22:32;97387.60;;;11.00
67822;BMP180;54434;50.096;20.082;2023-04-01T16:25:31;97392.00;;;11.00
67822;BMP180;54434;50.096;20.082;2023-04-01T16:28:25;97396.80;;;11.00
67822;BMP180;54434;50.096;20.082;2023-04-01T16:31:12;97399.20;;;10.94
67822;BMP180;54434;50.096;20.082;2023-04-01T16:33:58;97396.40;;;10.90
67822;BMP180;54434;50.096;20.082;2023-04-01T16:36:48;97398.20;;;10.90
67822;BMP180;54434;50.096;20.082;2023-04-01T16:39:41;97400.20;;;10.80
67822;BMP180;54434;50.096;20.082;2023-04-01T16:42:46;97402.00;;;10.80
67822;BMP180;54434;50.096;20.082;2023-04-01T16:45:41;97403.00;;;10.70
67822;BMP180;54434;50.096;20.082;2023-04-01T16:48:24;97412.80;;;10.70
67822;BMP180;54434;50.096;20.082;2023-04-01T16:51:11;97416.80;;;10.60
67822;BMP180;54434;50.096;20.082;2023-04-01T16:54:01;97417.60;;;10.60
67822;BMP180;54434;50.096;20.082;2023-04-01T16:56:49;97420.00;;;10.50
67822;BMP180;54434;50.096;20.082;2023-04-01T16:59:36;97429.80;;;10.44
67822;BMP180;54434;50.096;20.082;2023-04-01T17:02:18;97430.40;;;10.40
67822;BMP180;54434;50.096;20.082;2023-04-01T17:05:07;97430.80;;;10.36
67822;BMP180;54434;50.096;20.082;2023-04-01T17:08:01;97429.20;;;10.30
67822;BMP180;54434;50.096;20.082;2023-04-01T17:10:55;97437.00;;;10.28
67822;BMP180;54434;50.096;20.082;2023-04-01T17:13:48;97440.40;;;10.20
67822;BMP180;54434;50.096;20.082;2023-04-01T17:16:56;97447.00;;;10.10
67822;BMP180;54434;50.096;20.082;2023-04-01T17:20:10;97449.80;;;10.10
67822;BMP180;54434;50.096;20.082;2023-04-01T17:23:03;97457.60;;;10.04
67822;BMP180;54434;50.096;20.082;2023-04-01T17:26:02;97460.20;;;10.00
67822;BMP180;54434;50.096;20.082;2023-04-01T17:28:52;97464.00;;;10.00